sensor_id;sensor_type;location;lat;lon;timestamp;P1;durP1;ratioP1;P2;durP2;ratioP2
19173;SDS011;9719;49.322;8.536;2022-12-07T00:02:30;9.60;;;8.60;;
19173;SDS011;9719;49.322;8.536;2022-12-07T00:07:32;7.90;;;6.07;;
19173;SDS011;9719;49.322;8.536;2022-12-07T00:12:35;10.60;;;7.93;;
19173;SDS011;9719;49.322;8.536;2022-12-07T00:17:37;10.70;;;7.37;;
19173;SDS011;9719;49.322;8.536;2022-12-07T00:22:39;10.43;;;6.83;;
19173;SDS011;9719;49.322;8.536;2022-12-07T00:27:42;10.57;;;7.43;;
19173;SDS011;9719;49.322;8.536;2022-12-07T00:32:44;7.37;;;6.00;;
19173;SDS011;9719;49.322;8.536;2022-12-07T00:37:46;9.23;;;7.10;;
19173;SDS011;9719;49.322;8.536;2022-12-07T00:42:49;7.83;;;7.03;;
19173;SDS011;9719;49.322;8.536;2022-12-07T00:47:51;11.10;;;8.80;;
19173;SDS011;9719;49.322;8.536;2022-12-07T00:52:52;10.73;;;8.50;;
19173;SDS011;9719;49.322;8.536;2022-12-07T00:57:56;10.23;;;8.03;;
19173;SDS011;9719;49.322;8.536;2022-12-07T01:02:57;8.33;;;6.80;;
19173;SDS011;9719;49.322;8.536;2022-12-07T01:07:59;9.13;;;6.17;;
19173;SDS011;9719;49.322;8.536;2022-12-07T01:13:03;9.83;;;7.00;;
19173;SDS011;9719;49.322;8.536;2022-12-07T01:18:04;7.27;;;5.93;;
19173;SDS011;9719;49.322;8.536;2022-12-07T01:23:06;8.17;;;6.20;;
19173;SDS011;9719;49.322;8.536;2022-12-07T01:28:09;7.33;;;5.97;;
19173;SDS011;9719;49.322;8.536;2022-12-07T01:33:11;7.53;;;6.47;;
19173;SDS011;9719;49.322;8.536;2022-12-07T01:38:13;7.17;;;6.37;;
19173;SDS011;9719;49.322;8.536;2022-12-07T01:43:17;7.37;;;6.57;;
19173;SDS011;9719;49.322;8.536;2022-12-07T01:48:20;7.57;;;6.73;;
19173;SDS011;9719;49.322;8.536;2022-12-07T01:59:12;8.57;;;6.43;;
19173;SDS011;9719;49.322;8.536;2022-12-07T02:04:14;6.57;;;5.80;;
19173;SDS011;9719;49.322;8.536;2022-12-07T02:09:16;6.77;;;6.03;;
19173;SDS011;9719;49.322;8.536;2022-12-07T02:14:19;6.10;;;5.10;;
19173;SDS011;9719;49.322;8.536;2022-12-07T02:19:30;11.23;;;6.00;;
19173;SDS011;9719;49.322;8.536;2022-12-07T02:24:53;5.97;;;5.27;;
19173;SDS011;9719;49.322;8.536;2022-12-07T02:30:01;5.90;;;5.30;;
19173;SDS011;9719;49.322;8.536;2022-12-07T02:35:05;6.37;;;5.13;;
19173;SDS011;9719;49.322;8.536;2022-12-07T02:40:12;6.50;;;5.17;;
19173;SDS011;9719;49.322;8.536;2022-12-07T02:45:20;4.93;;;4.43;;
19173;SDS011;9719;49.322;8.536;2022-12-07T02:50:23;6.80;;;5.57;;
19173;SDS011;9719;49.322;8.536;2022-12-07T02:55:26;6.67;;;5.97;;
19173;SDS011;9719;49.322;8.536;2022-12-07T03:00:36;13.83;;;9.50;;
19173;SDS011;9719;49.322;8.536;2022-12-07T03:05:52;7.97;;;6.53;;
19173;SDS011;9719;49.322;8.536;2022-12-07T03:11:09;7.67;;;6.27;;
19173;SDS011;9719;49.322;8.536;2022-12-07T03:16:16;6.57;;;5.60;;
19173;SDS011;9719;49.322;8.536;2022-12-07T03:21:22;9.17;;;7.23;;
19173;SDS011;9719;49.322;8.536;2022-12-07T03:26:28;7.43;;;5.40;;
19173;SDS011;9719;49.322;8.536;2022-12-07T03:31:37;6.13;;;5.53;;
19173;SDS011;9719;49.322;8.536;2022-12-07T03:36:43;8.43;;;6.73;;
19173;SDS011;9719;49.322;8.536;2022-12-07T03:41:48;10.53;;;8.00;;
19173;SDS011;9719;49.322;8.536;2022-12-07T03:46:57;8.37;;;7.23;;
19173;SDS011;9719;49.322;8.536;2022-12-07T03:52:03;8.93;;;7.33;;
19173;SDS011;9719;49.322;8.536;2022-12-07T03:57:13;7.93;;;7.13;;
19173;SDS011;9719;49.322;8.536;2022-12-07T04:02:17;8.90;;;7.07;;
19173;SDS011;9719;49.322;8.536;2022-12-07T04:07:19;12.00;;;7.73;;
19173;SDS011;9719;49.322;8.536;2022-12-07T04:12:21;7.23;;;6.37;;
19173;SDS011;9719;49.322;8.536;2022-12-07T04:17:25;9.93;;;7.53;;
19173;SDS011;9719;49.322;8.536;2022-12-07T04:22:27;7.03;;;6.20;;
19173;SDS011;9719;49.322;8.536;2022-12-07T04:27:29;9.40;;;6.10;;
19173;SDS011;9719;49.322;8.536;2022-12-07T04:37:35;10.93;;;8.77;;
19173;SDS011;9719;49.322;8.536;2022-12-07T04:42:39;10.63;;;7.30;;
19173;SDS011;9719;49.322;8.536;2022-12-07T04:47:42;7.77;;;6.93;;
19173;SDS011;9719;49.322;8.536;2022-12-07T04:52:44;9.30;;;6.93;;
19173;SDS011;9719;49.322;8.536;2022-12-07T04:57:45;7.47;;;5.83;;
19173;SDS011;9719;49.322;8.536;2022-12-07T05:02:49;9.17;;;6.83;;
19173;SDS011;9719;49.322;8.536;2022-12-07T05:07:58;8.87;;;6.43;;
19173;SDS011;9719;49.322;8.536;2022-12-07T05:13:12;7.37;;;6.57;;
19173;SDS011;9719;49.322;8.536;2022-12-07T05:18:16;7.13;;;6.50;;
19173;SDS011;9719;49.322;8.536;2022-12-07T05:23:25;7.27;;;6.53;;
19173;SDS011;9719;49.322;8.536;2022-12-07T05:28:27;7.33;;;5.93;;
19173;SDS011;9719;49.322;8.536;2022-12-07T05:33:30;7.23;;;5.87;;
19173;SDS011;9719;49.322;8.536;2022-12-07T05:38:32;7.30;;;6.33;;
19173;SDS011;9719;49.322;8.536;2022-12-07T05:43:34;6.83;;;5.90;;
19173;SDS011;9719;49.322;8.536;2022-12-07T05:48:37;6.50;;;5.80;;
19173;SDS011;9719;49.322;8.536;2022-12-07T05:53:39;7.77;;;5.87;;
19173;SDS011;9719;49.322;8.536;2022-12-07T05:58:41;7.70;;;6.10;;
19173;SDS011;9719;49.322;8.536;2022-12-07T06:04:03;8.77;;;6.77;;
19173;SDS011;9719;49.322;8.536;2022-12-07T06:09:08;7.43;;;5.90;;
19173;SDS011;9719;49.322;8.536;2022-12-07T06:14:10;8.10;;;6.40;;
19173;SDS011;9719;49.322;8.536;2022-12-07T06:19:13;8.43;;;7.53;;
19173;SDS011;9719;49.322;8.536;2022-12-07T06:24:15;7.33;;;6.63;;
19173;SDS011;9719;49.322;8.536;2022-12-07T06:29:18;9.53;;;7.07;;
19173;SDS011;9719;49.322;8.536;2022-12-07T06:34:22;7.43;;;6.10;;
19173;SDS011;9719;49.322;8.536;2022-12-07T06:39:26;8.87;;;7.77;;
19173;SDS011;9719;49.322;8.536;2022-12-07T06:44:28;7.57;;;6.13;;
19173;SDS011;9719;49.322;8.536;2022-12-07T06:49:32;6.33;;;5.70;;
19173;SDS011;9719;49.322;8.536;2022-12-07T06:54:33;8.17;;;5.97;;
19173;SDS011;9719;49.322;8.536;2022-12-07T06:59:35;7.93;;;6.00;;
19173;SDS011;9719;49.322;8.536;2022-12-07T07:04:38;9.23;;;6.80;;
19173;SDS011;9719;49.322;8.536;2022-12-07T07:09:40;7.93;;;6.63;;
19173;SDS011;9719;49.322;8.536;2022-12-07T07:14:42;8.47;;;6.07;;
19173;SDS011;9719;49.322;8.536;2022-12-07T07:25:20;9.27;;;7.23;;
19173;SDS011;9719;49.322;8.536;2022-12-07T07:30:22;10.07;;;7.47;;
19173;SDS011;9719;49.322;8.536;2022-12-07T07:35:25;7.57;;;6.77;;
19173;SDS011;9719;49.322;8.536;2022-12-07T07:40:27;6.87;;;6.23;;
19173;SDS011;9719;49.322;8.536;2022-12-07T07:45:30;18.37;;;7.83;;
19173;SDS011;9719;49.322;8.536;2022-12-07T07:50:33;9.07;;;7.63;;
19173;SDS011;9719;49.322;8.536;2022-12-07T07:55:35;8.33;;;7.53;;
19173;SDS011;9719;49.322;8.536;2022-12-07T08:00:37;8.87;;;6.57;;
19173;SDS011;9719;49.322;8.536;2022-12-07T08:05:40;8.73;;;6.57;;
19173;SDS011;9719;49.322;8.536;2022-12-07T08:10:42;9.30;;;7.37;;
19173;SDS011;9719;49.322;8.536;2022-12-07T08:15:45;10.50;;;6.27;;
19173;SDS011;9719;49.322;8.536;2022-12-07T08:20:49;9.73;;;7.60;;
19173;SDS011;9719;49.322;8.536;2022-12-07T08:25:51;9.07;;;6.97;;
19173;SDS011;9719;49.322;8.536;2022-12-07T08:30:58;8.27;;;7.13;;
19173;SDS011;9719;49.322;8.536;2022-12-07T08:36:02;11.47;;;6.60;;
19173;SDS011;9719;49.322;8.536;2022-12-07T08:46:26;8.37;;;7.00;;
19173;SDS011;9719;49.322;8.536;2022-12-07T08:51:34;11.57;;;7.40;;
19173;SDS011;9719;49.322;8.536;2022-12-07T08:56:37;8.95;;;7.93;;
19173;SDS011;9719;49.322;8.536;2022-12-07T09:01:39;10.53;;;7.37;;
19173;SDS011;9719;49.322;8.536;2022-12-07T09:06:43;8.40;;;6.80;;
19173;SDS011;9719;49.322;8.536;2022-12-07T09:11:44;9.63;;;7.07;;
19173;SDS011;9719;49.322;8.536;2022-12-07T09:16:46;8.37;;;6.93;;
19173;SDS011;9719;49.322;8.536;2022-12-07T09:21:49;8.70;;;6.60;;
19173;SDS011;9719;49.322;8.536;2022-12-07T09:26:51;9.83;;;8.00;;
19173;SDS011;9719;49.322;8.536;2022-12-07T09:31:53;8.00;;;7.20;;
19173;SDS011;9719;49.322;8.536;2022-12-07T09:36:56;9.33;;;7.40;;
19173;SDS011;9719;49.322;8.536;2022-12-07T09:41:59;10.17;;;7.50;;
19173;SDS011;9719;49.322;8.536;2022-12-07T09:47:05;8.10;;;7.30;;
19173;SDS011;9719;49.322;8.536;2022-12-07T09:52:17;8.82;;;7.43;;
19173;SDS011;9719;49.322;8.536;2022-12-07T09:57:25;10.60;;;8.23;;
19173;SDS011;9719;49.322;8.536;2022-12-07T10:02:34;8.73;;;6.78;;
19173;SDS011;9719;49.322;8.536;2022-12-07T10:07:38;8.43;;;6.85;;
19173;SDS011;9719;49.322;8.536;2022-12-07T10:12:53;9.93;;;7.78;;
19173;SDS011;9719;49.322;8.536;2022-12-07T10:17:58;10.07;;;8.30;;
19173;SDS011;9719;49.322;8.536;2022-12-07T10:23:02;8.60;;;7.07;;
19173;SDS011;9719;49.322;8.536;2022-12-07T10:28:13;8.90;;;7.30;;
19173;SDS011;9719;49.322;8.536;2022-12-07T10:33:33;9.90;;;7.53;;
19173;SDS011;9719;49.322;8.536;2022-12-07T10:38:38;9.47;;;7.33;;
19173;SDS011;9719;49.322;8.536;2022-12-07T10:43:47;10.30;;;7.30;;
19173;SDS011;9719;49.322;8.536;2022-12-07T10:48:53;8.77;;;7.55;;
19173;SDS011;9719;49.322;8.536;2022-12-07T10:54:07;8.88;;;7.07;;
19173;SDS011;9719;49.322;8.536;2022-12-07T10:59:19;8.50;;;7.18;;
19173;SDS011;9719;49.322;8.536;2022-12-07T11:04:41;7.68;;;6.00;;
19173;SDS011;9719;49.322;8.536;2022-12-07T11:09:57;9.32;;;7.88;;
19173;SDS011;9719;49.322;8.536;2022-12-07T11:15:10;7.15;;;5.70;;
19173;SDS011;9719;49.322;8.536;2022-12-07T11:20:24;9.38;;;6.15;;
19173;SDS011;9719;49.322;8.536;2022-12-07T11:25:47;6.35;;;5.43;;
19173;SDS011;9719;49.322;8.536;2022-12-07T11:30:56;7.18;;;5.95;;
19173;SDS011;9719;49.322;8.536;2022-12-07T11:36:05;8.77;;;5.85;;
19173;SDS011;9719;49.322;8.536;2022-12-07T11:41:19;7.03;;;5.83;;
19173;SDS011;9719;49.322;8.536;2022-12-07T11:46:25;6.83;;;6.13;;
19173;SDS011;9719;49.322;8.536;2022-12-07T11:51:33;9.98;;;5.90;;
19173;SDS011;9719;49.322;8.536;2022-12-07T11:56:40;6.63;;;5.95;;
19173;SDS011;9719;49.322;8.536;2022-12-07T12:01:45;8.73;;;6.63;;
19173;SDS011;9719;49.322;8.536;2022-12-07T12:06:52;8.55;;;6.32;;
19173;SDS011;9719;49.322;8.536;2022-12-07T12:12:11;11.45;;;5.93;;
19173;SDS011;9719;49.322;8.536;2022-12-07T12:17:51;8.00;;;6.40;;
19173;SDS011;9719;49.322;8.536;2022-12-07T12:23:06;7.90;;;5.90;;
19173;SDS011;9719;49.322;8.536;2022-12-07T12:28:22;8.67;;;6.67;;
19173;SDS011;9719;49.322;8.536;2022-12-07T12:33:28;8.40;;;6.63;;
19173;SDS011;9719;49.322;8.536;2022-12-07T12:38:33;11.87;;;6.77;;
19173;SDS011;9719;49.322;8.536;2022-12-07T12:43:51;7.63;;;6.57;;
19173;SDS011;9719;49.322;8.536;2022-12-07T12:48:53;9.75;;;5.95;;
19173;SDS011;9719;49.322;8.536;2022-12-07T12:54:02;11.77;;;6.10;;
19173;SDS011;9719;49.322;8.536;2022-12-07T13:04:29;7.60;;;5.70;;
19173;SDS011;9719;49.322;8.536;2022-12-07T13:09:59;10.23;;;6.97;;
19173;SDS011;9719;49.322;8.536;2022-12-07T13:15:19;9.13;;;5.83;;
19173;SDS011;9719;49.322;8.536;2022-12-07T13:20:46;7.53;;;5.73;;
19173;SDS011;9719;49.322;8.536;2022-12-07T13:25:54;7.17;;;5.37;;
19173;SDS011;9719;49.322;8.536;2022-12-07T13:31:11;6.63;;;5.93;;
19173;SDS011;9719;49.322;8.536;2022-12-07T13:36:21;7.68;;;5.65;;
19173;SDS011;9719;49.322;8.536;2022-12-07T13:41:25;6.72;;;6.07;;
19173;SDS011;9719;49.322;8.536;2022-12-07T13:46:34;6.33;;;5.73;;
19173;SDS011;9719;49.322;8.536;2022-12-07T13:51:44;6.15;;;5.45;;
19173;SDS011;9719;49.322;8.536;2022-12-07T13:56:47;8.25;;;5.50;;
19173;SDS011;9719;49.322;8.536;2022-12-07T14:01:53;5.78;;;5.15;;
19173;SDS011;9719;49.322;8.536;2022-12-07T14:06:56;6.38;;;5.57;;
19173;SDS011;9719;49.322;8.536;2022-12-07T14:11:58;6.07;;;4.95;;
19173;SDS011;9719;49.322;8.536;2022-12-07T14:17:12;4.38;;;3.70;;
19173;SDS011;9719;49.322;8.536;2022-12-07T14:22:24;3.95;;;3.55;;
19173;SDS011;9719;49.322;8.536;2022-12-07T14:27:31;3.50;;;3.17;;
19173;SDS011;9719;49.322;8.536;2022-12-07T14:32:37;3.95;;;3.50;;
19173;SDS011;9719;49.322;8.536;2022-12-07T14:37:41;4.57;;;3.90;;
19173;SDS011;9719;49.322;8.536;2022-12-07T14:42:44;4.47;;;4.07;;
19173;SDS011;9719;49.322;8.536;2022-12-07T14:47:50;5.63;;;4.03;;
19173;SDS011;9719;49.322;8.536;2022-12-07T14:52:53;5.07;;;4.13;;
19173;SDS011;9719;49.322;8.536;2022-12-07T14:57:57;4.10;;;3.53;;
19173;SDS011;9719;49.322;8.536;2022-12-07T15:03:09;4.40;;;4.00;;
19173;SDS011;9719;49.322;8.536;2022-12-07T15:08:21;6.07;;;4.80;;
19173;SDS011;9719;49.322;8.536;2022-12-07T15:13:23;5.50;;;4.20;;
19173;SDS011;9719;49.322;8.536;2022-12-07T15:18:44;5.95;;;4.63;;
19173;SDS011;9719;49.322;8.536;2022-12-07T15:23:46;6.03;;;4.30;;
19173;SDS011;9719;49.322;8.536;2022-12-07T15:28:48;6.57;;;5.22;;
19173;SDS011;9719;49.322;8.536;2022-12-07T15:33:51;5.53;;;5.03;;
19173;SDS011;9719;49.322;8.536;2022-12-07T15:38:53;8.43;;;5.78;;
19173;SDS011;9719;49.322;8.536;2022-12-07T15:43:55;7.82;;;5.15;;
19173;SDS011;9719;49.322;8.536;2022-12-07T15:49:17;6.67;;;5.30;;
19173;SDS011;9719;49.322;8.536;2022-12-07T15:54:20;5.10;;;4.60;;
19173;SDS011;9719;49.322;8.536;2022-12-07T15:59:23;4.82;;;4.07;;
19173;SDS011;9719;49.322;8.536;2022-12-07T16:04:29;26.35;;;5.57;;
19173;SDS011;9719;49.322;8.536;2022-12-07T16:09:31;5.13;;;4.63;;
19173;SDS011;9719;49.322;8.536;2022-12-07T16:14:32;4.93;;;4.20;;
19173;SDS011;9719;49.322;8.536;2022-12-07T16:19:36;4.75;;;4.35;;
19173;SDS011;9719;49.322;8.536;2022-12-07T16:24:38;9.07;;;6.17;;
19173;SDS011;9719;49.322;8.536;2022-12-07T16:29:40;8.97;;;6.33;;
19173;SDS011;9719;49.322;8.536;2022-12-07T16:34:43;9.38;;;6.97;;
19173;SDS011;9719;49.322;8.536;2022-12-07T16:39:45;10.33;;;7.13;;
19173;SDS011;9719;49.322;8.536;2022-12-07T16:44:47;11.03;;;8.60;;
19173;SDS011;9719;49.322;8.536;2022-12-07T16:49:50;8.83;;;7.80;;
19173;SDS011;9719;49.322;8.536;2022-12-07T16:54:52;8.47;;;6.53;;
19173;SDS011;9719;49.322;8.536;2022-12-07T16:59:54;8.30;;;6.77;;
19173;SDS011;9719;49.322;8.536;2022-12-07T17:04:57;8.88;;;7.97;;
19173;SDS011;9719;49.322;8.536;2022-12-07T17:09:59;9.32;;;7.65;;
19173;SDS011;9719;49.322;8.536;2022-12-07T17:15:01;9.48;;;8.05;;
19173;SDS011;9719;49.322;8.536;2022-12-07T17:20:19;12.73;;;10.17;;
19173;SDS011;9719;49.322;8.536;2022-12-07T17:25:21;10.77;;;8.83;;
19173;SDS011;9719;49.322;8.536;2022-12-07T17:30:23;12.20;;;9.37;;
19173;SDS011;9719;49.322;8.536;2022-12-07T17:35:27;13.20;;;9.17;;
19173;SDS011;9719;49.322;8.536;2022-12-07T17:40:28;8.40;;;7.60;;
19173;SDS011;9719;49.322;8.536;2022-12-07T17:45:30;10.80;;;7.67;;
19173;SDS011;9719;49.322;8.536;2022-12-07T17:50:44;11.87;;;8.50;;
19173;SDS011;9719;49.322;8.536;2022-12-07T17:56:03;10.50;;;8.07;;
19173;SDS011;9719;49.322;8.536;2022-12-07T18:01:38;9.70;;;8.27;;
19173;SDS011;9719;49.322;8.536;2022-12-07T18:06:46;12.35;;;8.02;;
19173;SDS011;9719;49.322;8.536;2022-12-07T18:11:53;10.93;;;8.85;;
19173;SDS011;9719;49.322;8.536;2022-12-07T18:17:05;11.30;;;8.37;;
19173;SDS011;9719;49.322;8.536;2022-12-07T18:22:08;12.13;;;7.20;;
19173;SDS011;9719;49.322;8.536;2022-12-07T18:27:11;11.50;;;8.30;;
19173;SDS011;9719;49.322;8.536;2022-12-07T18:32:12;11.80;;;9.47;;
19173;SDS011;9719;49.322;8.536;2022-12-07T18:37:18;12.40;;;8.97;;
19173;SDS011;9719;49.322;8.536;2022-12-07T18:42:21;10.63;;;8.90;;
19173;SDS011;9719;49.322;8.536;2022-12-07T18:47:23;11.60;;;8.45;;
19173;SDS011;9719;49.322;8.536;2022-12-07T18:52:26;10.00;;;9.00;;
19173;SDS011;9719;49.322;8.536;2022-12-07T18:57:30;17.93;;;9.53;;
19173;SDS011;9719;49.322;8.536;2022-12-07T19:02:32;10.57;;;7.93;;
19173;SDS011;9719;49.322;8.536;2022-12-07T19:07:35;10.88;;;8.02;;
19173;SDS011;9719;49.322;8.536;2022-12-07T19:12:38;9.77;;;8.02;;
19173;SDS011;9719;49.322;8.536;2022-12-07T19:17:42;12.93;;;9.30;;
19173;SDS011;9719;49.322;8.536;2022-12-07T19:22:49;11.20;;;8.73;;
19173;SDS011;9719;49.322;8.536;2022-12-07T19:27:52;11.03;;;8.47;;
19173;SDS011;9719;49.322;8.536;2022-12-07T19:32:54;13.83;;;8.93;;
19173;SDS011;9719;49.322;8.536;2022-12-07T19:38:01;12.67;;;8.77;;
19173;SDS011;9719;49.322;8.536;2022-12-07T19:43:03;14.20;;;8.77;;
19173;SDS011;9719;49.322;8.536;2022-12-07T19:48:09;13.30;;;10.60;;
19173;SDS011;9719;49.322;8.536;2022-12-07T19:53:12;14.53;;;10.53;;
19173;SDS011;9719;49.322;8.536;2022-12-07T19:58:14;12.80;;;10.17;;
19173;SDS011;9719;49.322;8.536;2022-12-07T20:03:21;12.33;;;9.03;;
19173;SDS011;9719;49.322;8.536;2022-12-07T20:08:24;13.77;;;10.90;;
19173;SDS011;9719;49.322;8.536;2022-12-07T20:13:26;13.80;;;10.70;;
19173;SDS011;9719;49.322;8.536;2022-12-07T20:18:33;15.10;;;10.63;;
19173;SDS011;9719;49.322;8.536;2022-12-07T20:23:36;13.77;;;10.13;;
19173;SDS011;9719;49.322;8.536;2022-12-07T20:28:39;14.20;;;10.97;;
19173;SDS011;9719;49.322;8.536;2022-12-07T20:33:45;13.10;;;10.87;;
19173;SDS011;9719;49.322;8.536;2022-12-07T20:38:48;15.83;;;8.97;;
19173;SDS011;9719;49.322;8.536;2022-12-07T20:43:50;16.25;;;9.48;;
19173;SDS011;9719;49.322;8.536;2022-12-07T20:48:52;14.33;;;10.03;;
19173;SDS011;9719;49.322;8.536;2022-12-07T20:53:55;12.50;;;9.43;;
19173;SDS011;9719;49.322;8.536;2022-12-07T20:58:58;15.87;;;11.20;;
19173;SDS011;9719;49.322;8.536;2022-12-07T21:04:03;12.03;;;9.30;;
19173;SDS011;9719;49.322;8.536;2022-12-07T21:09:06;16.52;;;9.50;;
19173;SDS011;9719;49.322;8.536;2022-12-07T21:14:09;11.37;;;8.37;;
19173;SDS011;9719;49.322;8.536;2022-12-07T21:19:11;11.57;;;9.67;;
19173;SDS011;9719;49.322;8.536;2022-12-07T21:24:15;12.10;;;8.73;;
19173;SDS011;9719;49.322;8.536;2022-12-07T21:29:16;12.87;;;9.90;;
19173;SDS011;9719;49.322;8.536;2022-12-07T21:34:18;10.20;;;9.02;;
19173;SDS011;9719;49.322;8.536;2022-12-07T21:39:22;10.40;;;8.13;;
19173;SDS011;9719;49.322;8.536;2022-12-07T21:44:23;11.27;;;9.13;;
19173;SDS011;9719;49.322;8.536;2022-12-07T21:49:25;12.57;;;9.27;;
19173;SDS011;9719;49.322;8.536;2022-12-07T21:54:28;10.17;;;9.13;;
19173;SDS011;9719;49.322;8.536;2022-12-07T21:59:30;12.00;;;8.57;;
19173;SDS011;9719;49.322;8.536;2022-12-07T22:04:32;10.73;;;9.00;;
19173;SDS011;9719;49.322;8.536;2022-12-07T22:09:35;14.37;;;9.40;;
19173;SDS011;9719;49.322;8.536;2022-12-07T22:14:37;10.93;;;8.20;;
19173;SDS011;9719;49.322;8.536;2022-12-07T22:20:08;8.10;;;7.23;;
19173;SDS011;9719;49.322;8.536;2022-12-07T22:25:12;9.43;;;7.73;;
19173;SDS011;9719;49.322;8.536;2022-12-07T22:30:15;9.33;;;8.10;;
19173;SDS011;9719;49.322;8.536;2022-12-07T22:35:17;9.93;;;8.07;;
19173;SDS011;9719;49.322;8.536;2022-12-07T22:40:20;10.63;;;8.43;;
19173;SDS011;9719;49.322;8.536;2022-12-07T22:45:22;16.33;;;9.37;;
19173;SDS011;9719;49.322;8.536;2022-12-07T22:50:24;10.50;;;9.43;;
19173;SDS011;9719;49.322;8.536;2022-12-07T22:55:27;10.63;;;8.30;;
19173;SDS011;9719;49.322;8.536;2022-12-07T23:00:29;11.10;;;9.30;;
19173;SDS011;9719;49.322;8.536;2022-12-07T23:05:31;9.77;;;7.67;;
19173;SDS011;9719;49.322;8.536;2022-12-07T23:10:34;12.57;;;9.23;;
19173;SDS011;9719;49.322;8.536;2022-12-07T23:15:36;11.03;;;8.60;;
19173;SDS011;9719;49.322;8.536;2022-12-07T23:20:38;10.07;;;7.83;;
19173;SDS011;9719;49.322;8.536;2022-12-07T23:25:41;10.90;;;8.87;;
19173;SDS011;9719;49.322;8.536;2022-12-07T23:30:43;12.63;;;8.43;;
19173;SDS011;9719;49.322;8.536;2022-12-07T23:35:45;11.43;;;8.30;;
19173;SDS011;9719;49.322;8.536;2022-12-07T23:40:48;10.50;;;8.90;;
19173;SDS011;9719;49.322;8.536;2022-12-07T23:45:50;10.50;;;8.03;;
19173;SDS011;9719;49.322;8.536;2022-12-07T23:50:54;12.70;;;7.87;;
19173;SDS011;9719;49.322;8.536;2022-12-07T23:55:58;11.37;;;8.10;;
